Terminal Aerodrome Forecast
Issued by NWS

Current Version | Previous Version | Graphics & Text | Print | Product List | Glossary On
Versions: 1 2 3 4 5 6 7 8 9 10 11 12 13 14 15 16 17 18 19 20 21 22 23 24 25
000
FTUS41 KRLX 080500
TAFCKB
TAF
KCKB 080530Z 0806/0906 21006KT P6SM SCT120
     FM081400 21010KT P6SM BKN030
     FM082100 22015G24KT 5SM TSRA BR BKN035CB
     FM090000 25008KT 6SM SHRA BR VCTS BKN030CB
     FM090300 25008KT P6SM VCTS BKN030CB
     FM090500 26006KT P6SM BKN030=

USA.gov is the U.S. government's official web portal to all federal, state and local government web resources and services.